sensor_id;sensor_type;location;lat;lon;timestamp;temperature;humidity
53208;DHT22;39093;52.788;6.940;2023-08-24T00:01:39;18.70;99.90
53208;DHT22;39093;52.788;6.940;2023-08-24T00:04:06;18.70;99.90
53208;DHT22;39093;52.788;6.940;2023-08-24T00:06:35;18.70;99.90
53208;DHT22;39093;52.788;6.940;2023-08-24T00:09:03;18.70;99.90
53208;DHT22;39093;52.788;6.940;2023-08-24T00:11:31;18.60;99.90
53208;DHT22;39093;52.788;6.940;2023-08-24T00:13:58;18.60;99.90
53208;DHT22;39093;52.788;6.940;2023-08-24T00:16:25;18.50;99.90
53208;DHT22;39093;52.788;6.940;2023-08-24T00:18:52;18.50;99.90
53208;DHT22;39093;52.788;6.940;2023-08-24T00:21:19;18.50;99.90
53208;DHT22;39093;52.788;6.940;2023-08-24T00:23:50;18.50;99.90
53208;DHT22;39093;52.788;6.940;2023-08-24T00:26:17;18.50;99.90
53208;DHT22;39093;52.788;6.940;2023-08-24T00:28:44;18.40;99.90
53208;DHT22;39093;52.788;6.940;2023-08-24T00:31:12;18.40;99.90
53208;DHT22;39093;52.788;6.940;2023-08-24T00:33:39;18.30;99.90
53208;DHT22;39093;52.788;6.940;2023-08-24T00:36:07;18.40;99.90
53208;DHT22;39093;52.788;6.940;2023-08-24T00:38:34;18.30;99.90
53208;DHT22;39093;52.788;6.940;2023-08-24T00:41:01;18.30;99.90
53208;DHT22;39093;52.788;6.940;2023-08-24T00:43:28;18.30;99.90
53208;DHT22;39093;52.788;6.940;2023-08-24T00:45:57;18.30;99.90
53208;DHT22;39093;52.788;6.940;2023-08-24T00:48:27;18.30;99.90
53208;DHT22;39093;52.788;6.940;2023-08-24T00:50:57;18.30;99.90
53208;DHT22;39093;52.788;6.940;2023-08-24T00:53:27;18.20;99.90
53208;DHT22;39093;52.788;6.940;2023-08-24T00:55:54;18.20;99.90
53208;DHT22;39093;52.788;6.940;2023-08-24T00:58:27;18.10;99.90
53208;DHT22;39093;52.788;6.940;2023-08-24T01:00:54;18.10;99.90
53208;DHT22;39093;52.788;6.940;2023-08-24T01:03:22;18.10;99.90
53208;DHT22;39093;52.788;6.940;2023-08-24T01:05:51;18.10;99.90
53208;DHT22;39093;52.788;6.940;2023-08-24T01:08:19;18.10;99.90
53208;DHT22;39093;52.788;6.940;2023-08-24T01:13:41;18.00;99.90
53208;DHT22;39093;52.788;6.940;2023-08-24T01:16:19;18.00;99.90
53208;DHT22;39093;52.788;6.940;2023-08-24T01:18:48;18.00;99.90
53208;DHT22;39093;52.788;6.940;2023-08-24T01:21:15;18.00;99.90
53208;DHT22;39093;52.788;6.940;2023-08-24T01:26:34;18.00;99.90
53208;DHT22;39093;52.788;6.940;2023-08-24T01:29:04;18.00;99.90
53208;DHT22;39093;52.788;6.940;2023-08-24T01:31:31;18.00;99.90
53208;DHT22;39093;52.788;6.940;2023-08-24T01:33:58;18.00;99.90
53208;DHT22;39093;52.788;6.940;2023-08-24T01:36:26;18.00;99.90
53208;DHT22;39093;52.788;6.940;2023-08-24T01:38:59;18.00;99.90
53208;DHT22;39093;52.788;6.940;2023-08-24T01:41:36;18.10;99.90
53208;DHT22;39093;52.788;6.940;2023-08-24T01:44:12;18.00;99.90
53208;DHT22;39093;52.788;6.940;2023-08-24T01:46:42;18.00;99.90
53208;DHT22;39093;52.788;6.940;2023-08-24T01:49:12;18.10;99.90
53208;DHT22;39093;52.788;6.940;2023-08-24T01:51:41;18.10;99.90
53208;DHT22;39093;52.788;6.940;2023-08-24T01:54:09;18.10;99.90
53208;DHT22;39093;52.788;6.940;2023-08-24T01:56:36;18.10;99.90
53208;DHT22;39093;52.788;6.940;2023-08-24T01:59:03;18.10;99.90
53208;DHT22;39093;52.788;6.940;2023-08-24T02:01:30;18.10;99.90
53208;DHT22;39093;52.788;6.940;2023-08-24T02:03:57;18.00;99.90
53208;DHT22;39093;52.788;6.940;2023-08-24T02:06:24;18.00;99.90
53208;DHT22;39093;52.788;6.940;2023-08-24T02:08:52;18.00;99.90
53208;DHT22;39093;52.788;6.940;2023-08-24T02:11:18;18.00;99.90
53208;DHT22;39093;52.788;6.940;2023-08-24T02:13:45;18.00;99.90
53208;DHT22;39093;52.788;6.940;2023-08-24T02:16:12;18.00;99.90
53208;DHT22;39093;52.788;6.940;2023-08-24T02:18:42;18.00;99.90
53208;DHT22;39093;52.788;6.940;2023-08-24T02:21:10;18.00;99.90
53208;DHT22;39093;52.788;6.940;2023-08-24T02:23:39;18.00;99.90
53208;DHT22;39093;52.788;6.940;2023-08-24T02:26:06;18.00;99.90
53208;DHT22;39093;52.788;6.940;2023-08-24T02:28:34;18.00;99.90
53208;DHT22;39093;52.788;6.940;2023-08-24T02:31:02;18.00;99.90
53208;DHT22;39093;52.788;6.940;2023-08-24T02:33:30;18.00;99.90
53208;DHT22;39093;52.788;6.940;2023-08-24T02:35:57;18.00;99.90
53208;DHT22;39093;52.788;6.940;2023-08-24T02:38:24;18.00;99.90
53208;DHT22;39093;52.788;6.940;2023-08-24T02:41:05;18.00;99.90
53208;DHT22;39093;52.788;6.940;2023-08-24T02:43:33;18.00;99.90
53208;DHT22;39093;52.788;6.940;2023-08-24T02:46:06;17.90;99.90
53208;DHT22;39093;52.788;6.940;2023-08-24T02:48:34;17.90;99.90
53208;DHT22;39093;52.788;6.940;2023-08-24T02:51:02;18.00;99.90
53208;DHT22;39093;52.788;6.940;2023-08-24T02:53:30;17.90;99.90
53208;DHT22;39093;52.788;6.940;2023-08-24T02:55:57;17.90;99.90
53208;DHT22;39093;52.788;6.940;2023-08-24T02:58:24;17.90;99.90
53208;DHT22;39093;52.788;6.940;2023-08-24T03:00:51;17.90;99.90
53208;DHT22;39093;52.788;6.940;2023-08-24T03:03:18;17.90;99.90
53208;DHT22;39093;52.788;6.940;2023-08-24T03:06:20;18.00;99.90
53208;DHT22;39093;52.788;6.940;2023-08-24T03:08:47;17.90;99.90
53208;DHT22;39093;52.788;6.940;2023-08-24T03:11:14;17.90;99.90
53208;DHT22;39093;52.788;6.940;2023-08-24T03:13:41;17.90;99.90
53208;DHT22;39093;52.788;6.940;2023-08-24T03:16:08;17.90;99.90
53208;DHT22;39093;52.788;6.940;2023-08-24T03:18:35;17.90;99.90
53208;DHT22;39093;52.788;6.940;2023-08-24T03:21:04;17.80;99.90
53208;DHT22;39093;52.788;6.940;2023-08-24T03:23:31;17.80;99.90
53208;DHT22;39093;52.788;6.940;2023-08-24T03:25:58;17.80;99.90
53208;DHT22;39093;52.788;6.940;2023-08-24T03:28:25;17.80;99.90
53208;DHT22;39093;52.788;6.940;2023-08-24T03:30:52;17.80;99.90
53208;DHT22;39093;52.788;6.940;2023-08-24T03:33:23;17.80;99.90
53208;DHT22;39093;52.788;6.940;2023-08-24T03:35:49;17.80;99.90
53208;DHT22;39093;52.788;6.940;2023-08-24T03:38:16;17.70;99.90
53208;DHT22;39093;52.788;6.940;2023-08-24T03:40:43;17.70;99.90
53208;DHT22;39093;52.788;6.940;2023-08-24T03:43:10;17.60;99.90
53208;DHT22;39093;52.788;6.940;2023-08-24T03:45:37;17.60;99.90
53208;DHT22;39093;52.788;6.940;2023-08-24T03:48:05;17.60;99.90
53208;DHT22;39093;52.788;6.940;2023-08-24T03:50:32;17.60;99.90
53208;DHT22;39093;52.788;6.940;2023-08-24T03:52:59;17.60;99.90
53208;DHT22;39093;52.788;6.940;2023-08-24T03:55:26;17.50;99.90
53208;DHT22;39093;52.788;6.940;2023-08-24T03:57:53;17.50;99.90
53208;DHT22;39093;52.788;6.940;2023-08-24T04:00:21;17.50;99.90
53208;DHT22;39093;52.788;6.940;2023-08-24T04:02:48;17.50;99.90
53208;DHT22;39093;52.788;6.940;2023-08-24T04:05:15;17.40;99.90
53208;DHT22;39093;52.788;6.940;2023-08-24T04:07:42;17.40;99.90
53208;DHT22;39093;52.788;6.940;2023-08-24T04:10:09;17.40;99.90
53208;DHT22;39093;52.788;6.940;2023-08-24T04:12:36;17.40;99.90
53208;DHT22;39093;52.788;6.940;2023-08-24T04:15:03;17.30;99.90
53208;DHT22;39093;52.788;6.940;2023-08-24T04:17:31;17.30;99.90
53208;DHT22;39093;52.788;6.940;2023-08-24T04:19:58;17.30;99.90
53208;DHT22;39093;52.788;6.940;2023-08-24T04:22:25;17.30;99.90
53208;DHT22;39093;52.788;6.940;2023-08-24T04:24:52;17.20;99.90
53208;DHT22;39093;52.788;6.940;2023-08-24T04:27:19;17.20;99.90
53208;DHT22;39093;52.788;6.940;2023-08-24T04:29:46;17.10;99.90
53208;DHT22;39093;52.788;6.940;2023-08-24T04:32:13;17.10;99.90
53208;DHT22;39093;52.788;6.940;2023-08-24T04:34:40;17.00;99.90
53208;DHT22;39093;52.788;6.940;2023-08-24T04:37:06;17.10;99.90
53208;DHT22;39093;52.788;6.940;2023-08-24T04:39:34;17.10;99.90
53208;DHT22;39093;52.788;6.940;2023-08-24T04:42:01;17.10;99.90
53208;DHT22;39093;52.788;6.940;2023-08-24T04:44:30;17.00;99.90
53208;DHT22;39093;52.788;6.940;2023-08-24T04:46:57;17.00;99.90
53208;DHT22;39093;52.788;6.940;2023-08-24T04:49:24;17.00;99.90
53208;DHT22;39093;52.788;6.940;2023-08-24T04:51:51;17.00;99.90
53208;DHT22;39093;52.788;6.940;2023-08-24T04:54:17;17.00;99.90
53208;DHT22;39093;52.788;6.940;2023-08-24T04:56:45;17.00;99.90
53208;DHT22;39093;52.788;6.940;2023-08-24T04:59:13;17.00;99.90
53208;DHT22;39093;52.788;6.940;2023-08-24T05:01:45;17.00;99.90
53208;DHT22;39093;52.788;6.940;2023-08-24T05:04:12;16.90;99.90
53208;DHT22;39093;52.788;6.940;2023-08-24T05:06:39;16.90;99.90
53208;DHT22;39093;52.788;6.940;2023-08-24T05:09:06;16.90;99.90
53208;DHT22;39093;52.788;6.940;2023-08-24T05:11:36;16.90;99.90
53208;DHT22;39093;52.788;6.940;2023-08-24T05:14:02;17.00;99.90
53208;DHT22;39093;52.788;6.940;2023-08-24T05:16:30;17.00;99.90
53208;DHT22;39093;52.788;6.940;2023-08-24T05:18:57;17.00;99.90
53208;DHT22;39093;52.788;6.940;2023-08-24T05:21:24;17.00;99.90
53208;DHT22;39093;52.788;6.940;2023-08-24T05:23:51;17.10;99.90
53208;DHT22;39093;52.788;6.940;2023-08-24T05:26:18;17.00;99.90
53208;DHT22;39093;52.788;6.940;2023-08-24T05:28:49;17.00;99.90
53208;DHT22;39093;52.788;6.940;2023-08-24T05:31:16;17.10;99.90
53208;DHT22;39093;52.788;6.940;2023-08-24T05:33:47;17.10;99.90
53208;DHT22;39093;52.788;6.940;2023-08-24T05:36:14;17.10;99.90
53208;DHT22;39093;52.788;6.940;2023-08-24T05:38:41;17.20;99.90
53208;DHT22;39093;52.788;6.940;2023-08-24T05:41:30;17.20;99.90
53208;DHT22;39093;52.788;6.940;2023-08-24T05:44:05;17.20;99.90
53208;DHT22;39093;52.788;6.940;2023-08-24T05:46:32;17.20;99.90
53208;DHT22;39093;52.788;6.940;2023-08-24T05:48:59;17.20;99.90
53208;DHT22;39093;52.788;6.940;2023-08-24T05:51:26;17.20;99.90
53208;DHT22;39093;52.788;6.940;2023-08-24T05:53:54;17.30;99.90
53208;DHT22;39093;52.788;6.940;2023-08-24T05:56:25;17.40;99.90
53208;DHT22;39093;52.788;6.940;2023-08-24T05:58:52;17.40;99.90
53208;DHT22;39093;52.788;6.940;2023-08-24T06:01:18;17.40;99.90
53208;DHT22;39093;52.788;6.940;2023-08-24T06:03:45;17.40;99.90
53208;DHT22;39093;52.788;6.940;2023-08-24T06:06:14;17.40;99.90
53208;DHT22;39093;52.788;6.940;2023-08-24T06:08:41;17.40;99.90
53208;DHT22;39093;52.788;6.940;2023-08-24T06:11:08;17.50;99.90
53208;DHT22;39093;52.788;6.940;2023-08-24T06:13:35;17.50;99.90
53208;DHT22;39093;52.788;6.940;2023-08-24T06:16:02;17.50;99.90
53208;DHT22;39093;52.788;6.940;2023-08-24T06:18:29;17.60;99.90
53208;DHT22;39093;52.788;6.940;2023-08-24T06:20:56;17.60;99.90
53208;DHT22;39093;52.788;6.940;2023-08-24T06:23:23;17.60;99.90
53208;DHT22;39093;52.788;6.940;2023-08-24T06:25:50;17.60;99.90
53208;DHT22;39093;52.788;6.940;2023-08-24T06:28:16;17.70;99.90
53208;DHT22;39093;52.788;6.940;2023-08-24T06:30:43;17.70;99.90
53208;DHT22;39093;52.788;6.940;2023-08-24T06:33:11;17.70;99.90
53208;DHT22;39093;52.788;6.940;2023-08-24T06:35:38;17.80;99.90
53208;DHT22;39093;52.788;6.940;2023-08-24T06:38:05;17.90;99.90
53208;DHT22;39093;52.788;6.940;2023-08-24T06:40:32;17.90;99.90
53208;DHT22;39093;52.788;6.940;2023-08-24T06:42:59;18.00;99.90
53208;DHT22;39093;52.788;6.940;2023-08-24T06:45:26;18.00;99.90
53208;DHT22;39093;52.788;6.940;2023-08-24T06:47:53;18.00;99.90
53208;DHT22;39093;52.788;6.940;2023-08-24T06:50:21;18.00;99.90
53208;DHT22;39093;52.788;6.940;2023-08-24T06:52:48;18.10;99.90
53208;DHT22;39093;52.788;6.940;2023-08-24T06:55:15;18.10;99.90
53208;DHT22;39093;52.788;6.940;2023-08-24T06:57:47;18.10;99.90
53208;DHT22;39093;52.788;6.940;2023-08-24T07:00:15;18.10;99.90
53208;DHT22;39093;52.788;6.940;2023-08-24T07:02:41;18.20;99.90
53208;DHT22;39093;52.788;6.940;2023-08-24T07:05:09;18.30;99.90
53208;DHT22;39093;52.788;6.940;2023-08-24T07:07:36;18.60;99.90
53208;DHT22;39093;52.788;6.940;2023-08-24T07:10:03;18.90;99.90
53208;DHT22;39093;52.788;6.940;2023-08-24T07:12:30;19.20;99.90
53208;DHT22;39093;52.788;6.940;2023-08-24T07:14:57;19.60;99.90
53208;DHT22;39093;52.788;6.940;2023-08-24T07:17:25;19.90;99.90
53208;DHT22;39093;52.788;6.940;2023-08-24T07:19:52;20.20;99.90
53208;DHT22;39093;52.788;6.940;2023-08-24T07:22:19;20.50;99.90
53208;DHT22;39093;52.788;6.940;2023-08-24T07:24:46;20.60;99.90
53208;DHT22;39093;52.788;6.940;2023-08-24T07:27:19;20.70;99.90
53208;DHT22;39093;52.788;6.940;2023-08-24T07:29:46;20.80;99.90
53208;DHT22;39093;52.788;6.940;2023-08-24T07:32:13;20.90;99.90
53208;DHT22;39093;52.788;6.940;2023-08-24T07:34:40;20.90;99.90
53208;DHT22;39093;52.788;6.940;2023-08-24T07:37:07;20.90;99.90
53208;DHT22;39093;52.788;6.940;2023-08-24T07:39:34;21.00;99.90
53208;DHT22;39093;52.788;6.940;2023-08-24T07:42:00;21.10;99.90
53208;DHT22;39093;52.788;6.940;2023-08-24T07:44:27;21.10;99.90
53208;DHT22;39093;52.788;6.940;2023-08-24T07:46:55;21.10;99.90
53208;DHT22;39093;52.788;6.940;2023-08-24T07:49:22;21.20;99.90
53208;DHT22;39093;52.788;6.940;2023-08-24T07:51:49;21.10;99.90
53208;DHT22;39093;52.788;6.940;2023-08-24T07:54:16;21.20;99.90
53208;DHT22;39093;52.788;6.940;2023-08-24T07:56:43;21.30;99.90
53208;DHT22;39093;52.788;6.940;2023-08-24T07:59:10;21.30;99.90
53208;DHT22;39093;52.788;6.940;2023-08-24T08:01:36;21.30;99.90
53208;DHT22;39093;52.788;6.940;2023-08-24T08:04:04;21.30;99.90
53208;DHT22;39093;52.788;6.940;2023-08-24T08:06:30;21.30;99.90
53208;DHT22;39093;52.788;6.940;2023-08-24T08:08:57;21.40;99.90
53208;DHT22;39093;52.788;6.940;2023-08-24T08:11:24;21.30;99.90
53208;DHT22;39093;52.788;6.940;2023-08-24T08:13:51;21.30;99.90
53208;DHT22;39093;52.788;6.940;2023-08-24T08:16:18;21.40;99.90
53208;DHT22;39093;52.788;6.940;2023-08-24T08:18:45;21.40;99.90
53208;DHT22;39093;52.788;6.940;2023-08-24T08:21:16;21.50;99.90
53208;DHT22;39093;52.788;6.940;2023-08-24T08:23:48;21.50;99.90
53208;DHT22;39093;52.788;6.940;2023-08-24T08:26:16;21.60;99.90
53208;DHT22;39093;52.788;6.940;2023-08-24T08:28:43;21.70;99.90
53208;DHT22;39093;52.788;6.940;2023-08-24T08:31:11;21.70;99.90
53208;DHT22;39093;52.788;6.940;2023-08-24T08:33:38;21.80;99.90
53208;DHT22;39093;52.788;6.940;2023-08-24T08:36:05;21.80;99.90
53208;DHT22;39093;52.788;6.940;2023-08-24T08:38:32;21.80;99.90
53208;DHT22;39093;52.788;6.940;2023-08-24T08:41:04;21.80;99.90
53208;DHT22;39093;52.788;6.940;2023-08-24T08:43:31;21.90;99.90
53208;DHT22;39093;52.788;6.940;2023-08-24T08:46:00;22.00;99.90
53208;DHT22;39093;52.788;6.940;2023-08-24T08:48:30;22.00;99.90
53208;DHT22;39093;52.788;6.940;2023-08-24T08:50:58;22.10;99.90
53208;DHT22;39093;52.788;6.940;2023-08-24T08:53:26;22.10;99.90
53208;DHT22;39093;52.788;6.940;2023-08-24T08:55:54;22.20;99.90
53208;DHT22;39093;52.788;6.940;2023-08-24T08:58:33;22.30;99.90
53208;DHT22;39093;52.788;6.940;2023-08-24T09:01:03;22.40;99.90
53208;DHT22;39093;52.788;6.940;2023-08-24T09:03:31;22.50;99.90
53208;DHT22;39093;52.788;6.940;2023-08-24T09:05:59;22.60;99.90
53208;DHT22;39093;52.788;6.940;2023-08-24T09:08:26;22.70;99.90
53208;DHT22;39093;52.788;6.940;2023-08-24T09:10:54;22.80;99.90
53208;DHT22;39093;52.788;6.940;2023-08-24T09:13:22;22.90;99.90
53208;DHT22;39093;52.788;6.940;2023-08-24T09:15:51;23.00;99.90
53208;DHT22;39093;52.788;6.940;2023-08-24T09:18:19;23.10;99.90
53208;DHT22;39093;52.788;6.940;2023-08-24T09:20:47;23.20;99.90
53208;DHT22;39093;52.788;6.940;2023-08-24T09:23:20;23.30;99.90
53208;DHT22;39093;52.788;6.940;2023-08-24T09:25:47;23.40;99.90
53208;DHT22;39093;52.788;6.940;2023-08-24T09:28:22;23.50;99.90
53208;DHT22;39093;52.788;6.940;2023-08-24T09:30:53;23.50;99.90
53208;DHT22;39093;52.788;6.940;2023-08-24T09:33:23;23.60;99.90
53208;DHT22;39093;52.788;6.940;2023-08-24T09:35:55;23.70;99.90
53208;DHT22;39093;52.788;6.940;2023-08-24T09:38:27;23.80;99.90
53208;DHT22;39093;52.788;6.940;2023-08-24T09:40:56;23.80;99.90
53208;DHT22;39093;52.788;6.940;2023-08-24T09:43:23;23.90;99.90
53208;DHT22;39093;52.788;6.940;2023-08-24T09:45:55;24.10;99.90
53208;DHT22;39093;52.788;6.940;2023-08-24T09:48:23;24.20;99.90
53208;DHT22;39093;52.788;6.940;2023-08-24T09:50:57;24.30;99.90
53208;DHT22;39093;52.788;6.940;2023-08-24T09:53:24;24.40;99.90
53208;DHT22;39093;52.788;6.940;2023-08-24T09:55:59;24.50;99.90
53208;DHT22;39093;52.788;6.940;2023-08-24T09:58:27;24.50;99.90
53208;DHT22;39093;52.788;6.940;2023-08-24T10:00:55;24.50;99.90
53208;DHT22;39093;52.788;6.940;2023-08-24T10:03:26;24.50;99.90
53208;DHT22;39093;52.788;6.940;2023-08-24T10:05:56;24.50;99.90
53208;DHT22;39093;52.788;6.940;2023-08-24T10:08:43;24.40;99.90
53208;DHT22;39093;52.788;6.940;2023-08-24T10:11:10;24.50;99.90
53208;DHT22;39093;52.788;6.940;2023-08-24T10:14:04;24.50;99.90
53208;DHT22;39093;52.788;6.940;2023-08-24T10:16:35;24.40;99.90
53208;DHT22;39093;52.788;6.940;2023-08-24T10:19:03;24.40;99.90
53208;DHT22;39093;52.788;6.940;2023-08-24T10:21:31;24.40;99.90
53208;DHT22;39093;52.788;6.940;2023-08-24T10:23:58;24.30;99.90
53208;DHT22;39093;52.788;6.940;2023-08-24T10:26:26;24.30;99.90
53208;DHT22;39093;52.788;6.940;2023-08-24T10:28:54;24.20;99.90
53208;DHT22;39093;52.788;6.940;2023-08-24T10:31:21;24.20;99.90
53208;DHT22;39093;52.788;6.940;2023-08-24T10:33:49;24.20;99.90
53208;DHT22;39093;52.788;6.940;2023-08-24T10:36:18;24.10;99.90
53208;DHT22;39093;52.788;6.940;2023-08-24T10:38:45;24.10;99.90
53208;DHT22;39093;52.788;6.940;2023-08-24T10:41:12;24.20;99.90
53208;DHT22;39093;52.788;6.940;2023-08-24T10:43:48;24.20;99.90
53208;DHT22;39093;52.788;6.940;2023-08-24T10:46:15;24.00;99.90
53208;DHT22;39093;52.788;6.940;2023-08-24T10:51:16;24.00;99.90
53208;DHT22;39093;52.788;6.940;2023-08-24T10:53:51;24.00;99.90
53208;DHT22;39093;52.788;6.940;2023-08-24T10:56:18;24.00;99.90
53208;DHT22;39093;52.788;6.940;2023-08-24T10:58:47;24.00;99.90
53208;DHT22;39093;52.788;6.940;2023-08-24T11:01:17;24.00;99.90
53208;DHT22;39093;52.788;6.940;2023-08-24T11:03:56;24.10;99.90
53208;DHT22;39093;52.788;6.940;2023-08-24T11:06:25;24.10;99.90
53208;DHT22;39093;52.788;6.940;2023-08-24T11:09:09;24.10;99.90
53208;DHT22;39093;52.788;6.940;2023-08-24T11:11:42;24.20;99.90
53208;DHT22;39093;52.788;6.940;2023-08-24T11:14:19;24.30;99.90
53208;DHT22;39093;52.788;6.940;2023-08-24T11:16:49;24.40;99.90
53208;DHT22;39093;52.788;6.940;2023-08-24T11:19:17;24.60;99.90
53208;DHT22;39093;52.788;6.940;2023-08-24T11:21:45;24.70;99.90
53208;DHT22;39093;52.788;6.940;2023-08-24T11:24:13;24.80;99.90
53208;DHT22;39093;52.788;6.940;2023-08-24T11:26:45;24.90;99.90
53208;DHT22;39093;52.788;6.940;2023-08-24T11:29:13;24.90;99.90
53208;DHT22;39093;52.788;6.940;2023-08-24T11:31:40;25.00;99.90
53208;DHT22;39093;52.788;6.940;2023-08-24T11:34:14;25.00;99.90
53208;DHT22;39093;52.788;6.940;2023-08-24T11:36:47;25.10;99.90
53208;DHT22;39093;52.788;6.940;2023-08-24T11:39:18;25.20;99.90
53208;DHT22;39093;52.788;6.940;2023-08-24T11:41:56;25.20;99.90
53208;DHT22;39093;52.788;6.940;2023-08-24T11:44:23;25.00;99.90
53208;DHT22;39093;52.788;6.940;2023-08-24T11:46:58;25.00;99.90
53208;DHT22;39093;52.788;6.940;2023-08-24T11:49:26;25.00;99.90
53208;DHT22;39093;52.788;6.940;2023-08-24T11:51:54;25.00;99.90
53208;DHT22;39093;52.788;6.940;2023-08-24T11:54:21;25.00;99.90
53208;DHT22;39093;52.788;6.940;2023-08-24T11:56:48;25.00;99.90
53208;DHT22;39093;52.788;6.940;2023-08-24T11:59:16;25.00;99.90
53208;DHT22;39093;52.788;6.940;2023-08-24T12:01:45;25.00;99.90
53208;DHT22;39093;52.788;6.940;2023-08-24T12:04:12;25.00;99.90
53208;DHT22;39093;52.788;6.940;2023-08-24T12:06:39;25.00;99.90
53208;DHT22;39093;52.788;6.940;2023-08-24T12:09:07;25.10;99.90
53208;DHT22;39093;52.788;6.940;2023-08-24T12:11:37;25.00;99.90
53208;DHT22;39093;52.788;6.940;2023-08-24T12:14:06;25.00;99.90
53208;DHT22;39093;52.788;6.940;2023-08-24T12:16:36;25.00;99.90
53208;DHT22;39093;52.788;6.940;2023-08-24T12:19:07;24.90;99.90
53208;DHT22;39093;52.788;6.940;2023-08-24T12:21:34;24.90;99.90
53208;DHT22;39093;52.788;6.940;2023-08-24T12:24:02;24.90;99.90
53208;DHT22;39093;52.788;6.940;2023-08-24T12:26:33;24.80;99.90
53208;DHT22;39093;52.788;6.940;2023-08-24T12:29:08;24.80;99.90
53208;DHT22;39093;52.788;6.940;2023-08-24T12:31:36;24.80;99.90
53208;DHT22;39093;52.788;6.940;2023-08-24T12:34:07;24.80;99.90
53208;DHT22;39093;52.788;6.940;2023-08-24T12:36:38;24.90;99.90
53208;DHT22;39093;52.788;6.940;2023-08-24T12:39:06;25.00;99.90
53208;DHT22;39093;52.788;6.940;2023-08-24T12:41:37;25.00;99.90
53208;DHT22;39093;52.788;6.940;2023-08-24T12:44:04;25.30;99.90
53208;DHT22;39093;52.788;6.940;2023-08-24T12:46:38;25.60;99.90
53208;DHT22;39093;52.788;6.940;2023-08-24T12:49:05;25.90;99.90
53208;DHT22;39093;52.788;6.940;2023-08-24T12:51:34;26.30;99.90
53208;DHT22;39093;52.788;6.940;2023-08-24T12:54:01;26.50;99.90
53208;DHT22;39093;52.788;6.940;2023-08-24T12:56:28;26.90;99.90
53208;DHT22;39093;52.788;6.940;2023-08-24T12:58:55;27.20;99.90
53208;DHT22;39093;52.788;6.940;2023-08-24T13:01:22;27.30;99.90
53208;DHT22;39093;52.788;6.940;2023-08-24T13:03:49;27.30;99.90
53208;DHT22;39093;52.788;6.940;2023-08-24T13:06:15;27.40;99.90
53208;DHT22;39093;52.788;6.940;2023-08-24T13:08:45;27.20;99.90
53208;DHT22;39093;52.788;6.940;2023-08-24T13:11:12;27.20;99.90
53208;DHT22;39093;52.788;6.940;2023-08-24T13:13:39;27.10;99.90
53208;DHT22;39093;52.788;6.940;2023-08-24T13:16:06;27.00;99.90
53208;DHT22;39093;52.788;6.940;2023-08-24T13:18:34;26.90;99.90
53208;DHT22;39093;52.788;6.940;2023-08-24T13:21:01;26.80;99.90
53208;DHT22;39093;52.788;6.940;2023-08-24T13:23:28;26.70;99.90
53208;DHT22;39093;52.788;6.940;2023-08-24T13:25:57;26.60;99.90
53208;DHT22;39093;52.788;6.940;2023-08-24T13:28:24;26.50;99.90
53208;DHT22;39093;52.788;6.940;2023-08-24T13:30:51;26.40;99.90
53208;DHT22;39093;52.788;6.940;2023-08-24T13:33:18;26.40;99.90
53208;DHT22;39093;52.788;6.940;2023-08-24T13:35:46;26.30;99.90
53208;DHT22;39093;52.788;6.940;2023-08-24T13:38:13;26.20;99.90
53208;DHT22;39093;52.788;6.940;2023-08-24T13:40:40;26.20;99.90
53208;DHT22;39093;52.788;6.940;2023-08-24T13:43:07;26.10;99.90
53208;DHT22;39093;52.788;6.940;2023-08-24T13:45:34;26.20;99.90
53208;DHT22;39093;52.788;6.940;2023-08-24T13:48:02;26.20;99.90
53208;DHT22;39093;52.788;6.940;2023-08-24T13:50:29;26.40;99.90
53208;DHT22;39093;52.788;6.940;2023-08-24T13:52:56;26.60;99.90
53208;DHT22;39093;52.788;6.940;2023-08-24T13:55:23;26.80;99.90
53208;DHT22;39093;52.788;6.940;2023-08-24T13:57:51;26.80;99.90
53208;DHT22;39093;52.788;6.940;2023-08-24T14:00:18;26.80;99.90
53208;DHT22;39093;52.788;6.940;2023-08-24T14:02:45;26.70;99.90
53208;DHT22;39093;52.788;6.940;2023-08-24T14:05:15;26.50;99.90
53208;DHT22;39093;52.788;6.940;2023-08-24T14:07:42;26.40;99.90
53208;DHT22;39093;52.788;6.940;2023-08-24T14:10:09;26.20;99.90
53208;DHT22;39093;52.788;6.940;2023-08-24T14:12:36;26.10;99.90
53208;DHT22;39093;52.788;6.940;2023-08-24T14:15:03;26.00;99.90
53208;DHT22;39093;52.788;6.940;2023-08-24T14:17:30;25.80;99.90
53208;DHT22;39093;52.788;6.940;2023-08-24T14:19:57;25.80;99.90
53208;DHT22;39093;52.788;6.940;2023-08-24T14:22:25;25.60;99.90
53208;DHT22;39093;52.788;6.940;2023-08-24T14:24:52;25.50;99.90
53208;DHT22;39093;52.788;6.940;2023-08-24T14:27:19;25.50;99.90
53208;DHT22;39093;52.788;6.940;2023-08-24T14:29:46;25.40;99.90
53208;DHT22;39093;52.788;6.940;2023-08-24T14:32:13;25.30;99.90
53208;DHT22;39093;52.788;6.940;2023-08-24T14:34:40;25.20;99.90
53208;DHT22;39093;52.788;6.940;2023-08-24T14:37:07;25.10;99.90
53208;DHT22;39093;52.788;6.940;2023-08-24T14:39:33;25.00;99.90
53208;DHT22;39093;52.788;6.940;2023-08-24T14:42:00;25.00;99.90
53208;DHT22;39093;52.788;6.940;2023-08-24T14:44:29;24.90;99.90
53208;DHT22;39093;52.788;6.940;2023-08-24T14:46:56;24.90;99.90
53208;DHT22;39093;52.788;6.940;2023-08-24T14:49:23;24.90;99.90
53208;DHT22;39093;52.788;6.940;2023-08-24T14:51:50;24.80;99.90
53208;DHT22;39093;52.788;6.940;2023-08-24T14:54:17;24.80;99.90
53208;DHT22;39093;52.788;6.940;2023-08-24T14:56:44;24.80;99.90
53208;DHT22;39093;52.788;6.940;2023-08-24T14:59:11;24.70;99.90
53208;DHT22;39093;52.788;6.940;2023-08-24T15:01:38;24.70;99.90
53208;DHT22;39093;52.788;6.940;2023-08-24T15:04:05;24.70;99.90
53208;DHT22;39093;52.788;6.940;2023-08-24T15:06:35;24.60;99.90
53208;DHT22;39093;52.788;6.940;2023-08-24T15:09:02;24.60;99.90
53208;DHT22;39093;52.788;6.940;2023-08-24T15:11:29;24.60;99.90
53208;DHT22;39093;52.788;6.940;2023-08-24T15:13:56;24.50;99.90
53208;DHT22;39093;52.788;6.940;2023-08-24T15:16:23;24.50;99.90
53208;DHT22;39093;52.788;6.940;2023-08-24T15:18:50;24.40;99.90
53208;DHT22;39093;52.788;6.940;2023-08-24T15:21:17;24.40;99.90
53208;DHT22;39093;52.788;6.940;2023-08-24T15:23:44;24.40;99.90
53208;DHT22;39093;52.788;6.940;2023-08-24T15:26:11;24.40;99.90
53208;DHT22;39093;52.788;6.940;2023-08-24T15:29:14;24.40;99.90
53208;DHT22;39093;52.788;6.940;2023-08-24T15:31:45;24.40;99.90
53208;DHT22;39093;52.788;6.940;2023-08-24T15:34:12;24.30;99.90
53208;DHT22;39093;52.788;6.940;2023-08-24T15:36:39;24.40;99.90
53208;DHT22;39093;52.788;6.940;2023-08-24T15:39:06;24.40;99.90
53208;DHT22;39093;52.788;6.940;2023-08-24T15:41:33;24.50;99.90
53208;DHT22;39093;52.788;6.940;2023-08-24T15:44:00;24.50;99.90
53208;DHT22;39093;52.788;6.940;2023-08-24T15:46:30;24.50;99.90